Time;durP1;ratioP1;P1;durP2;ratioP2;P2;SDS_P1;SDS_P2;PMS_P1;PMS_P2;Temp;Humidity;BMP_temperature;BMP_pressure;BME280_temperature;BME280_humidity;BME280_pressure;Samples;Min_cycle;Max_cycle;Signal;HPM_P1;HPM_P2
2023/08/19 00:00:56;;;;;;;14.60;6.80;;;;;;;27.31;38.53;100843.59;108018;1284;22003;-69
2023/08/19 00:03:21;;;;;;;9.20;6.00;;;;;;;27.29;38.75;100841.79;107992;1290;22012;-59
2023/08/19 00:05:47;;;;;;;12.40;6.20;;;;;;;27.24;38.78;100843.05;107953;1290;22001;-62
2023/08/19 00:08:13;;;;;;;11.30;6.70;;;;;;;27.21;38.87;100841.48;108026;1284;22027;-59
2023/08/19 00:10:39;;;;;;;7.30;6.20;;;;;;;27.20;39.01;100839.63;107981;1289;22001;-70
2023/08/19 00:13:06;;;;;;;9.40;6.70;;;;;;;27.19;39.05;100840.54;108127;1289;21988;-70
2023/08/19 00:15:32;;;;;;;11.40;6.80;;;;;;;27.19;39.11;100838.74;108043;1289;22004;-57
2023/08/19 00:18:00;;;;;;;9.90;7.00;;;;;;;27.20;39.06;100839.59;108046;1284;21989;-60
2023/08/19 00:20:29;;;;;;;8.40;7.00;;;;;;;27.19;39.13;100838.58;108018;1288;21996;-59
2023/08/19 00:22:58;;;;;;;8.90;6.30;;;;;;;27.15;39.14;100837.95;107974;1290;22027;-70
2023/08/19 00:25:24;;;;;;;9.20;6.40;;;;;;;27.12;39.16;100837.84;107946;1284;22002;-70
2023/08/19 00:27:52;;;;;;;10.20;5.80;;;;;;;27.12;39.28;100838.89;107983;1290;22000;-60
2023/08/19 00:30:18;;;;;;;9.40;6.50;;;;;;;27.13;39.22;100841.95;108038;1284;22023;-60
2023/08/19 00:32:45;;;;;;;8.40;5.80;;;;;;;27.09;39.33;100840.55;108054;1280;21992;-60
2023/08/19 00:35:11;;;;;;;8.00;6.10;;;;;;;27.05;39.36;100843.02;108031;1289;21982;-70
2023/08/19 00:37:36;;;;;;;12.00;6.10;;;;;;;27.00;39.33;100843.73;108106;1284;21995;-70
2023/08/19 00:40:06;;;;;;;8.30;6.10;;;;;;;26.95;39.45;100845.57;107998;1284;22375;-70
2023/08/19 00:42:32;;;;;;;7.10;5.70;;;;;;;26.87;39.38;100844.17;107998;1289;22002;-69
2023/08/19 00:44:57;;;;;;;14.50;7.30;;;;;;;26.82;39.59;100845.06;108042;1287;21991;-62
2023/08/19 00:47:24;;;;;;;9.00;6.50;;;;;;;26.77;39.71;100844.55;108053;1285;21987;-59
2023/08/19 00:49:49;;;;;;;10.50;6.50;;;;;;;26.74;39.64;100845.28;108063;1284;22456;-60
2023/08/19 00:52:15;;;;;;;11.60;6.90;;;;;;;26.68;39.67;100844.27;107986;1285;22225;-70
2023/08/19 00:54:41;;;;;;;8.90;6.70;;;;;;;26.61;39.84;100843.36;108058;1287;22000;-60
2023/08/19 00:57:06;;;;;;;9.00;6.30;;;;;;;26.57;39.77;100842.87;107969;1289;21994;-71
2023/08/19 00:59:32;;;;;;;8.20;6.00;;;;;;;26.53;39.99;100843.16;108030;1289;21994;-70
2023/08/19 01:01:57;;;;;;;10.30;6.30;;;;;;;26.49;40.03;100842.75;107946;1289;22014;-59
2023/08/19 01:04:24;;;;;;;7.80;7.00;;;;;;;26.43;40.11;100840.86;108043;1284;21995;-59
2023/08/19 01:07:04;;;;;;;8.30;6.90;;;;;;;26.37;40.24;100843.95;108043;1283;22151;-60
2023/08/19 01:09:33;;;;;;;9.50;7.00;;;;;;;26.31;40.21;100844.54;108001;1289;21994;-60
2023/08/19 01:12:02;;;;;;;11.20;6.40;;;;;;;26.25;40.43;100839.92;107985;1288;21998;-69
2023/08/19 01:14:57;;;;;;;9.00;6.90;;;;;;;26.22;40.42;100841.27;108114;1288;22001;-70
2023/08/19 01:17:25;;;;;;;7.90;7.10;;;;;;;26.18;40.50;100839.36;107972;1289;21990;-59
2023/08/19 01:19:51;;;;;;;10.90;7.10;;;;;;;26.14;40.45;100841.45;108038;1285;21993;-60
2023/08/19 01:22:18;;;;;;;8.80;6.40;;;;;;;26.11;40.61;100841.59;107785;1290;22000;-60
2023/08/19 01:24:44;;;;;;;12.20;6.40;;;;;;;26.12;40.74;100839.42;107988;1284;22006;-70
2023/08/19 01:27:23;;;;;;;10.60;6.50;;;;;;;26.10;40.68;100837.70;107829;1289;21995;-65
2023/08/19 01:29:49;;;;;;;8.40;6.90;;;;;;;26.08;40.73;100834.80;108115;1289;21989;-59
2023/08/19 01:32:14;;;;;;;8.10;6.50;;;;;;;26.07;40.80;100833.08;108018;1289;21989;-70
2023/08/19 01:34:40;;;;;;;9.60;7.10;;;;;;;26.04;41.03;100838.84;107938;1289;22002;-59
2023/08/19 01:37:08;;;;;;;11.10;7.40;;;;;;;26.02;41.00;100839.02;108017;1289;22080;-59
2023/08/19 01:39:33;;;;;;;10.10;7.20;;;;;;;25.99;41.03;100842.83;108055;1284;22459;-69
2023/08/19 01:41:59;;;;;;;10.80;7.10;;;;;;;25.96;40.96;100839.24;107723;1287;21994;-59
2023/08/19 01:44:25;;;;;;;11.00;8.10;;;;;;;25.93;40.94;100837.51;108000;1289;22002;-71
2023/08/19 01:46:50;;;;;;;10.50;7.00;;;;;;;25.89;41.05;100840.27;107691;1289;22000;-68
2023/08/19 01:49:16;;;;;;;12.20;6.50;;;;;;;25.87;41.13;100840.79;108030;1288;22093;-58
2023/08/19 01:51:41;;;;;;;10.20;7.30;;;;;;;25.86;41.25;100840.50;108076;1289;21990;-69
2023/08/19 01:54:07;;;;;;;12.50;6.80;;;;;;;25.84;41.33;100837.55;108097;1288;21992;-58
2023/08/19 01:56:33;;;;;;;8.50;6.70;;;;;;;25.84;41.40;100833.98;108103;1289;21993;-69
2023/08/19 01:58:59;;;;;;;8.60;6.60;;;;;;;25.83;41.36;100834.18;108065;1287;21997;-58
2023/08/19 02:01:24;;;;;;;10.70;6.80;;;;;;;25.82;41.40;100834.81;108020;1288;21962;-69
2023/08/19 02:03:50;;;;;;;11.30;7.10;;;;;;;25.79;41.42;100833.42;108019;1289;21993;-58
2023/08/19 02:06:15;;;;;;;9.70;6.50;;;;;;;25.76;41.56;100835.64;108023;1289;23055;-58
2023/08/19 02:08:41;;;;;;;13.00;6.90;;;;;;;25.72;41.68;100832.64;108018;1283;22030;-68
2023/08/19 02:11:06;;;;;;;10.20;6.20;;;;;;;25.69;41.62;100835.17;107989;1283;22027;-68
2023/08/19 02:13:32;;;;;;;8.60;6.10;;;;;;;25.67;41.79;100837.63;108062;1280;21986;-68
2023/08/19 02:15:57;;;;;;;15.40;5.90;;;;;;;25.67;42.01;100839.61;108033;1289;22014;-58
2023/08/19 02:18:23;;;;;;;11.90;6.30;;;;;;;25.69;42.02;100837.34;108012;1284;21994;-68
2023/08/19 02:20:49;;;;;;;9.40;6.60;;;;;;;25.71;42.22;100840.84;108082;1278;22011;-59
2023/08/19 02:23:14;;;;;;;8.90;6.50;;;;;;;25.72;42.16;100841.31;108078;1289;22020;-68
2023/08/19 02:25:40;;;;;;;9.90;6.10;;;;;;;25.71;42.26;100842.77;108039;1289;21999;-72
2023/08/19 02:28:05;;;;;;;12.80;6.30;;;;;;;25.76;42.48;100839.71;107912;1289;21989;-69
2023/08/19 02:30:32;;;;;;;12.80;6.20;;;;;;;25.81;42.23;100837.98;107952;1285;21990;-58
2023/08/19 02:33:04;;;;;;;10.30;7.00;;;;;;;25.78;42.13;100835.98;107886;1283;21985;-69
2023/08/19 02:35:30;;;;;;;11.60;6.00;;;;;;;25.74;42.20;100835.58;108044;1289;22949;-58
2023/08/19 02:37:55;;;;;;;10.90;5.60;;;;;;;25.69;42.16;100836.24;108028;1288;21986;-70
2023/08/19 02:40:21;;;;;;;10.60;6.10;;;;;;;25.66;42.39;100840.06;108045;1283;21991;-69
2023/08/19 02:42:47;;;;;;;10.30;6.40;;;;;;;25.63;42.55;100846.19;108011;1289;22000;-69
2023/08/19 02:45:12;;;;;;;10.90;6.20;;;;;;;25.61;42.45;100846.54;107909;1288;22032;-57
2023/08/19 02:47:38;;;;;;;9.80;6.10;;;;;;;25.58;42.83;100842.79;108039;1283;21989;-69
2023/08/19 02:50:05;;;;;;;14.90;6.80;;;;;;;25.54;42.75;100847.20;108063;1289;21991;-69
2023/08/19 02:52:31;;;;;;;10.40;5.90;;;;;;;25.52;42.81;100853.23;108066;1283;22000;-58
2023/08/19 02:54:56;;;;;;;11.80;6.60;;;;;;;25.52;42.94;100858.48;108001;1289;22003;-58
2023/08/19 02:57:22;;;;;;;13.10;6.20;;;;;;;25.51;42.95;100862.63;108008;1289;21992;-69
2023/08/19 02:59:47;;;;;;;7.70;5.80;;;;;;;25.51;43.23;100859.77;107951;1287;21995;-70
2023/08/19 03:02:13;;;;;;;10.40;5.90;;;;;;;25.50;43.41;100854.48;108073;1289;21990;-58
2023/08/19 03:04:38;;;;;;;11.10;5.50;;;;;;;25.49;43.44;100853.44;108037;1289;21992;-69
2023/08/19 03:07:04;;;;;;;10.50;5.80;;;;;;;25.50;43.33;100853.20;108081;1288;21994;-58
2023/08/19 03:09:29;;;;;;;9.70;6.20;;;;;;;25.51;43.51;100856.14;108007;1289;22234;-58
2023/08/19 03:11:55;;;;;;;10.80;5.70;;;;;;;25.53;43.52;100855.70;108004;1283;21992;-69
2023/08/19 03:14:21;;;;;;;11.10;5.90;;;;;;;25.53;43.51;100853.90;108025;1284;22004;-68
2023/08/19 03:16:46;;;;;;;11.00;5.70;;;;;;;25.54;43.53;100856.13;108021;1280;21993;-70
2023/08/19 03:19:14;;;;;;;9.50;5.50;;;;;;;25.56;43.57;100854.08;108086;1289;21991;-69
2023/08/19 03:21:40;;;;;;;13.60;6.00;;;;;;;25.58;43.60;100853.23;108018;1283;21982;-69
2023/08/19 03:24:06;;;;;;;10.40;5.70;;;;;;;25.59;43.59;100852.60;108075;1285;21990;-57
2023/08/19 03:26:32;;;;;;;12.80;6.40;;;;;;;25.59;43.78;100848.80;108070;1289;21990;-61
2023/08/19 03:28:57;;;;;;;8.90;5.80;;;;;;;25.64;43.90;100843.61;108035;1287;21992;-57
2023/08/19 03:31:23;;;;;;;10.50;5.90;;;;;;;25.72;43.99;100846.33;108036;1289;22002;-58
2023/08/19 03:33:49;;;;;;;13.40;6.20;;;;;;;25.79;43.97;100843.88;108105;1283;21981;-57
2023/08/19 03:36:14;;;;;;;11.20;5.40;;;;;;;25.81;44.13;100842.29;108031;1289;21990;-76
2023/08/19 03:38:40;;;;;;;11.10;5.50;;;;;;;25.92;44.22;100844.77;108073;1288;22011;-57
2023/08/19 03:41:05;;;;;;;19.50;6.00;;;;;;;26.00;44.29;100844.55;108054;1284;21973;-75
2023/08/19 03:43:31;;;;;;;14.70;6.20;;;;;;;26.09;44.35;100844.48;107999;1283;21986;-77
2023/08/19 03:45:56;;;;;;;8.20;5.70;;;;;;;26.18;44.19;100837.41;107943;1287;23611;-57
2023/08/19 03:48:22;;;;;;;11.40;5.70;;;;;;;26.27;44.55;100836.40;108016;1285;22001;-78
2023/08/19 03:50:47;;;;;;;11.80;6.20;;;;;;;26.36;44.63;100837.02;107966;1280;21993;-57
2023/08/19 03:53:13;;;;;;;15.20;6.70;;;;;;;26.44;44.47;100836.60;108042;1281;22028;-57
2023/08/19 03:55:38;;;;;;;8.40;5.20;;;;;;;26.54;44.73;100837.20;108106;1283;22008;-76
2023/08/19 03:58:04;;;;;;;7.70;4.90;;;;;;;26.60;44.52;100834.80;108092;1289;22004;-57
2023/08/19 04:00:30;;;;;;;11.10;5.60;;;;;;;26.65;44.58;100836.36;108048;1289;22047;-57
2023/08/19 04:02:55;;;;;;;11.20;6.00;;;;;;;26.71;44.59;100835.77;108027;1287;22006;-57
2023/08/19 04:05:21;;;;;;;14.50;6.00;;;;;;;26.78;44.75;100835.27;108045;1287;21990;-73
2023/08/19 04:07:46;;;;;;;19.00;6.40;;;;;;;26.85;44.54;100836.07;108075;1289;22000;-75
2023/08/19 04:10:12;;;;;;;12.80;6.40;;;;;;;26.92;44.56;100835.93;108017;1289;22000;-57
2023/08/19 04:12:38;;;;;;;31.70;8.30;;;;;;;26.98;44.44;100835.59;108026;1289;22006;-69
2023/08/19 04:15:04;;;;;;;10.00;5.60;;;;;;;27.06;44.59;100835.95;108009;1286;21996;-59
2023/08/19 04:17:33;;;;;;;9.60;5.80;;;;;;;27.12;44.60;100841.27;108125;1287;21994;-57
2023/08/19 04:19:58;;;;;;;19.20;6.40;;;;;;;27.18;44.76;100841.14;108031;1283;22025;-70
2023/08/19 04:22:24;;;;;;;17.10;6.90;;;;;;;27.26;44.61;100843.41;108041;1289;21995;-57
2023/08/19 04:24:50;;;;;;;19.30;5.60;;;;;;;27.36;44.57;100845.25;108118;1289;21994;-58
2023/08/19 04:27:16;;;;;;;12.70;6.30;;;;;;;27.45;44.75;100844.91;108073;1289;21999;-72
2023/08/19 04:29:42;;;;;;;10.10;6.00;;;;;;;27.53;44.72;100843.23;108040;1283;23628;-70
2023/08/19 04:32:07;;;;;;;10.40;6.10;;;;;;;27.61;44.69;100845.33;107977;1284;22003;-72
2023/08/19 04:34:33;;;;;;;18.00;6.70;;;;;;;27.72;44.58;100845.20;107983;1284;22002;-71
2023/08/19 04:36:58;;;;;;;11.70;6.40;;;;;;;27.83;44.44;100845.11;107967;1287;22010;-72
2023/08/19 04:39:24;;;;;;;7.90;6.00;;;;;;;27.92;44.72;100844.21;108111;1289;21990;-57
2023/08/19 04:41:50;;;;;;;12.60;6.10;;;;;;;28.00;44.66;100841.97;107968;1284;22006;-71
2023/08/19 04:44:15;;;;;;;12.00;5.60;;;;;;;28.08;44.60;100838.65;107917;1288;21989;-70
2023/08/19 04:46:41;;;;;;;9.90;5.30;;;;;;;28.20;44.86;100836.10;109953;1290;21923;-62
2023/08/19 04:49:07;;;;;;;8.10;6.00;;;;;;;28.35;44.84;100836.88;109974;1281;21918;-59
2023/08/19 04:51:33;;;;;;;10.90;6.20;;;;;;;28.50;44.73;100834.25;108447;1283;21994;-70
2023/08/19 04:53:59;;;;;;;11.30;5.80;;;;;;;28.65;44.59;100835.59;107917;1290;22000;-60
2023/08/19 04:56:25;;;;;;;10.80;6.20;;;;;;;28.79;44.67;100834.97;107967;1290;22030;-57
2023/08/19 04:58:50;;;;;;;14.10;6.80;;;;;;;28.93;44.55;100831.19;107992;1290;22048;-70
2023/08/19 05:01:16;;;;;;;9.80;5.90;;;;;;;29.06;44.34;100831.70;107944;1290;21990;-58
2023/08/19 05:03:41;;;;;;;8.50;6.00;;;;;;;29.19;44.43;100832.77;107985;1284;22000;-70
2023/08/19 05:06:07;;;;;;;16.50;6.50;;;;;;;29.31;44.05;100835.94;107936;1290;22026;-57
2023/08/19 05:08:33;;;;;;;9.20;6.00;;;;;;;29.42;44.08;100840.63;107973;1288;21991;-58
2023/08/19 05:10:58;;;;;;;11.10;5.60;;;;;;;29.53;43.91;100841.36;107938;1290;22068;-58
2023/08/19 05:13:24;;;;;;;9.80;6.00;;;;;;;29.65;43.71;100838.55;107967;1284;22046;-58
2023/08/19 05:15:49;;;;;;;6.20;5.60;;;;;;;29.76;43.78;100837.91;107949;1290;21994;-68
2023/08/19 05:18:15;;;;;;;9.50;6.20;;;;;;;29.87;43.74;100838.58;107975;1290;22035;-67
2023/08/19 05:20:41;;;;;;;10.90;7.50;;;;;;;29.99;43.63;100837.54;107976;1284;21961;-58
2023/08/19 05:23:07;;;;;;;34.60;23.90;;;;;;;30.14;43.49;100839.41;107977;1290;22461;-59
2023/08/19 05:25:32;;;;;;;18.80;15.10;;;;;;;30.27;43.37;100839.48;107998;1283;22015;-69
2023/08/19 05:27:58;;;;;;;10.60;9.50;;;;;;;30.42;43.26;100837.98;107986;1284;21996;-68
2023/08/19 05:30:23;;;;;;;10.50;7.10;;;;;;;30.55;42.99;100839.18;107986;1287;22456;-68
2023/08/19 05:32:49;;;;;;;11.20;6.70;;;;;;;30.69;43.01;100844.14;108002;1289;22162;-61
2023/08/19 05:35:15;;;;;;;10.20;6.70;;;;;;;30.82;42.92;100840.74;108059;1285;21987;-68
2023/08/19 05:37:40;;;;;;;9.40;6.80;;;;;;;30.97;42.73;100844.68;108041;1287;23620;-58
2023/08/19 05:40:07;;;;;;;10.80;6.00;;;;;;;31.12;42.70;100845.31;108077;1280;21992;-58
2023/08/19 05:42:32;;;;;;;9.80;5.80;;;;;;;31.28;42.52;100845.48;108128;1284;21994;-68
2023/08/19 05:44:58;;;;;;;8.00;6.00;;;;;;;31.44;42.43;100843.27;108083;1289;21991;-58
2023/08/19 05:47:23;;;;;;;8.30;6.40;;;;;;;31.61;42.33;100843.19;108054;1284;21995;-58
2023/08/19 05:49:49;;;;;;;9.90;6.20;;;;;;;31.81;42.16;100842.72;108037;1283;21999;-60
2023/08/19 05:52:15;;;;;;;6.30;5.70;;;;;;;31.96;41.93;100838.25;108056;1287;21999;-71
2023/08/19 05:54:40;;;;;;;7.60;6.00;;;;;;;32.17;41.65;100842.61;108057;1284;21990;-69
2023/08/19 05:57:06;;;;;;;12.20;6.30;;;;;;;32.39;41.71;100844.31;107974;1288;21992;-70
2023/08/19 05:59:32;;;;;;;12.10;6.20;;;;;;;32.57;41.49;100841.82;108004;1289;21989;-60
2023/08/19 06:01:58;;;;;;;9.70;6.00;;;;;;;32.71;41.17;100842.63;108002;1287;21997;-60
2023/08/19 06:04:24;;;;;;;13.20;7.10;;;;;;;32.87;41.01;100841.95;108004;1283;22053;-68
2023/08/19 06:06:50;;;;;;;7.50;6.00;;;;;;;33.02;40.88;100841.17;107958;1290;21993;-67
2023/08/19 06:09:15;;;;;;;9.60;5.90;;;;;;;33.18;40.70;100836.02;107979;1290;22001;-70
2023/08/19 06:11:51;;;;;;;11.40;5.90;;;;;;;33.29;40.50;100835.84;108011;1284;21996;-60
2023/08/19 06:14:17;;;;;;;7.60;6.00;;;;;;;33.41;40.21;100832.61;107920;1283;22002;-68
2023/08/19 06:16:44;;;;;;;7.20;6.50;;;;;;;33.51;40.24;100827.56;108422;1284;21992;-70
2023/08/19 06:19:10;;;;;;;8.00;5.90;;;;;;;33.68;40.14;100825.98;107998;1289;22007;-58
2023/08/19 06:21:36;;;;;;;10.90;6.60;;;;;;;33.84;39.94;100821.84;107930;1284;22031;-67
2023/08/19 06:24:02;;;;;;;10.90;5.60;;;;;;;33.99;39.90;100822.80;107983;1287;22466;-69
2023/08/19 06:26:27;;;;;;;12.20;5.80;;;;;;;34.21;39.65;100823.45;107982;1287;21967;-59
2023/08/19 06:28:53;;;;;;;9.70;5.50;;;;;;;34.44;39.43;100820.27;107966;1287;21986;-58
2023/08/19 06:31:19;;;;;;;5.90;5.30;;;;;;;34.62;39.24;100819.52;107943;1290;22012;-68
2023/08/19 06:33:45;;;;;;;6.80;5.30;;;;;;;34.80;38.85;100820.24;107949;1283;22044;-69
2023/08/19 06:36:11;;;;;;;6.40;5.30;;;;;;;34.93;38.58;100818.64;107945;1286;21993;-68
2023/08/19 06:38:40;;;;;;;8.60;5.90;;;;;;;35.06;38.40;100817.07;108059;1284;22002;-67
2023/08/19 06:41:07;;;;;;;14.50;5.80;;;;;;;35.22;38.33;100822.81;108068;1284;21996;-58
2023/08/19 06:43:32;;;;;;;9.30;5.90;;;;;;;35.42;38.01;100824.67;108141;1277;21996;-68
2023/08/19 06:45:58;;;;;;;8.50;5.70;;;;;;;35.52;37.68;100826.62;107715;1289;21989;-59
2023/08/19 06:48:24;;;;;;;6.30;4.90;;;;;;;35.66;37.63;100829.80;107996;1280;21988;-69
2023/08/19 06:50:51;;;;;;;8.70;5.60;;;;;;;35.81;37.48;100828.50;108047;1289;21960;-60
2023/08/19 06:53:17;;;;;;;8.40;5.50;;;;;;;36.00;37.23;100825.53;108128;1283;22048;-59
2023/08/19 06:55:48;;;;;;;6.90;5.50;;;;;;;36.18;36.96;100828.55;108025;1284;21995;-59
2023/08/19 06:58:18;;;;;;;9.30;5.30;;;;;;;36.30;36.67;100831.94;108053;1284;22008;-70
2023/08/19 07:00:44;;;;;;;7.10;5.50;;;;;;;36.45;36.53;100831.88;108046;1288;21998;-59
2023/08/19 07:03:11;;;;;;;6.90;5.40;;;;;;;36.62;36.26;100829.42;107785;1287;22049;-59
2023/08/19 07:05:36;;;;;;;8.10;5.40;;;;;;;36.79;36.11;100832.92;108024;1289;21992;-59
2023/08/19 07:08:03;;;;;;;11.90;5.50;;;;;;;36.97;35.94;100839.57;107807;1289;21989;-68
2023/08/19 07:10:29;;;;;;;6.60;5.70;;;;;;;37.07;35.80;100836.02;108118;1283;21998;-59
2023/08/19 07:12:57;;;;;;;9.20;5.50;;;;;;;37.23;35.61;100832.66;108077;1283;21986;-68
2023/08/19 07:15:23;;;;;;;8.20;5.20;;;;;;;37.41;35.36;100833.48;108085;1280;21990;-61
2023/08/19 07:17:51;;;;;;;8.90;5.60;;;;;;;37.60;35.29;100830.43;108018;1287;21992;-59
2023/08/19 07:20:17;;;;;;;8.60;5.40;;;;;;;37.78;35.04;100830.67;107986;1284;22001;-59
2023/08/19 07:22:44;;;;;;;8.80;5.20;;;;;;;37.94;34.55;100835.20;107811;1290;22008;-69
2023/08/19 07:25:10;;;;;;;8.40;5.20;;;;;;;38.09;34.45;100828.90;107994;1283;22321;-70
2023/08/19 07:27:36;;;;;;;7.90;4.60;;;;;;;38.35;34.33;100826.03;108001;1290;21990;-59
2023/08/19 07:30:03;;;;;;;5.90;4.70;;;;;;;38.65;34.24;100826.59;107956;1283;21995;-70
2023/08/19 07:32:33;;;;;;;6.40;4.60;;;;;;;38.97;33.84;100827.20;108021;1287;21967;-60
2023/08/19 07:34:59;;;;;;;9.60;5.60;;;;;;;39.22;33.46;100828.31;107982;1287;21983;-59
2023/08/19 07:37:25;;;;;;;7.90;5.00;;;;;;;39.34;32.88;100826.59;107871;1284;149190;-69
2023/08/19 07:39:53;;;;;;;8.50;5.30;;;;;;;39.44;32.47;100829.17;107972;1289;22031;-70
2023/08/19 07:42:18;;;;;;;8.80;5.00;;;;;;;39.50;32.40;100828.42;108019;1290;21995;-59
2023/08/19 07:44:44;;;;;;;9.80;5.20;;;;;;;39.64;32.02;100831.02;107969;1287;21992;-70
2023/08/19 07:47:09;;;;;;;9.20;5.40;;;;;;;39.82;32.28;100830.70;107973;1290;22002;-69
2023/08/19 07:49:35;;;;;;;6.60;5.50;;;;;;;40.01;31.97;100834.21;108002;1290;21989;-71
2023/08/19 07:52:01;;;;;;;7.90;4.80;;;;;;;40.09;31.70;100834.38;107955;1284;21987;-71
2023/08/19 07:54:26;;;;;;;5.50;4.80;;;;;;;40.23;31.34;100834.30;107778;1280;21982;-68
2023/08/19 07:56:53;;;;;;;5.50;4.90;;;;;;;40.41;31.09;100832.39;107942;1289;22008;-60
2023/08/19 07:59:21;;;;;;;6.30;4.60;;;;;;;40.61;31.12;100831.14;107984;1284;22032;-70
2023/08/19 08:01:47;;;;;;;7.30;5.20;;;;;;;40.76;30.87;100836.59;107888;1284;22099;-70
2023/08/19 08:04:12;;;;;;;7.70;4.60;;;;;;;40.90;30.63;100834.85;107983;1287;21994;-60
2023/08/19 08:06:38;;;;;;;6.30;4.60;;;;;;;41.04;30.34;100832.88;108002;1284;21999;-70
2023/08/19 08:09:04;;;;;;;7.40;4.70;;;;;;;41.14;30.28;100831.20;107859;1290;22004;-59
2023/08/19 08:11:30;;;;;;;11.10;4.90;;;;;;;41.28;30.21;100829.39;107991;1283;22057;-64
2023/08/19 08:13:56;;;;;;;6.60;4.60;;;;;;;41.31;29.84;100834.98;107962;1283;21982;-60
2023/08/19 08:16:22;;;;;;;9.80;4.70;;;;;;;41.36;29.86;100829.98;108106;1283;21989;-69
2023/08/19 08:18:47;;;;;;;13.00;4.70;;;;;;;41.48;29.71;100827.35;107951;1289;21997;-58
2023/08/19 08:21:14;;;;;;;9.70;5.00;;;;;;;41.69;29.59;100827.77;108026;1283;22001;-70
2023/08/19 08:23:40;;;;;;;8.90;5.00;;;;;;;41.92;29.45;100826.41;108090;1289;22038;-69
2023/08/19 08:26:06;;;;;;;9.80;4.60;;;;;;;41.99;29.12;100826.40;108130;1283;21945;-59
2023/08/19 08:28:32;;;;;;;7.90;4.30;;;;;;;41.82;28.74;100825.59;107942;1285;22040;-58
2023/08/19 08:30:57;;;;;;;8.40;4.50;;;;;;;41.62;29.08;100831.35;107967;1283;21993;-61
2023/08/19 08:33:23;;;;;;;6.30;4.40;;;;;;;41.68;28.69;100827.09;108028;1287;21986;-59
2023/08/19 08:35:49;;;;;;;9.80;4.90;;;;;;;41.63;28.66;100823.27;107977;1284;21987;-60
2023/08/19 08:38:14;;;;;;;10.70;5.10;;;;;;;41.59;28.41;100822.23;107990;1289;22012;-60
2023/08/19 08:40:40;;;;;;;7.80;4.90;;;;;;;41.55;28.38;100825.65;107929;1289;21999;-70
2023/08/19 08:43:06;;;;;;;12.00;4.90;;;;;;;41.42;28.26;100826.20;107831;1289;21978;-59
2023/08/19 08:45:32;;;;;;;8.80;4.50;;;;;;;41.32;28.42;100825.82;107941;1288;21987;-58
2023/08/19 08:47:59;;;;;;;8.30;4.50;;;;;;;41.38;28.37;100826.11;107970;1289;22003;-59
2023/08/19 08:50:25;;;;;;;9.60;4.90;;;;;;;41.35;28.27;100825.02;107959;1287;21991;-59
2023/08/19 08:52:51;;;;;;;9.10;4.90;;;;;;;41.29;28.49;100822.12;107751;1289;21997;-59
2023/08/19 08:55:17;;;;;;;5.90;4.70;;;;;;;41.36;28.40;100819.36;107765;1289;21991;-70
2023/08/19 08:57:42;;;;;;;8.10;4.80;;;;;;;41.42;28.26;100821.48;108024;1277;21987;-70
2023/08/19 09:00:11;;;;;;;8.30;4.70;;;;;;;41.52;28.25;100822.55;107940;1278;22159;-59
2023/08/19 09:02:38;;;;;;;9.10;4.30;;;;;;;41.65;28.11;100819.33;107954;1283;22452;-59
2023/08/19 09:05:05;;;;;;;9.70;5.00;;;;;;;41.84;28.21;100817.75;108016;1289;21981;-60
2023/08/19 09:07:34;;;;;;;10.30;5.00;;;;;;;42.14;28.01;100815.55;108023;1276;22024;-69
2023/08/19 09:10:00;;;;;;;11.50;5.20;;;;;;;42.26;27.48;100818.91;108000;1287;22046;-69
2023/08/19 09:12:26;;;;;;;7.10;4.80;;;;;;;42.26;27.45;100819.33;107660;1287;21994;-69
2023/08/19 09:14:54;;;;;;;9.20;4.60;;;;;;;42.16;27.21;100818.11;107695;1288;21997;-68
2023/08/19 09:17:20;;;;;;;15.50;5.50;;;;;;;42.10;27.20;100807.54;107893;1290;22031;-69
2023/08/19 09:19:46;;;;;;;8.50;5.20;;;;;;;42.06;27.11;100812.87;107984;1283;22002;-60
2023/08/19 09:22:20;;;;;;;9.90;4.80;;;;;;;42.12;27.31;100813.33;107848;1289;22234;-58
2023/08/19 09:24:45;;;;;;;5.30;4.80;;;;;;;42.39;27.28;100804.10;108036;1287;21986;-69
2023/08/19 09:27:11;;;;;;;7.40;4.70;;;;;;;42.52;26.95;100802.60;107965;1283;21986;-58
2023/08/19 09:29:37;;;;;;;5.20;4.20;;;;;;;42.54;27.01;100804.81;108005;1283;22451;-59
2023/08/19 09:32:03;;;;;;;6.00;4.40;;;;;;;42.64;26.90;100807.21;107828;1289;21984;-59
2023/08/19 09:34:32;;;;;;;7.00;4.40;;;;;;;42.77;26.83;100807.35;107967;1289;21992;-59
2023/08/19 09:36:58;;;;;;;5.00;4.00;;;;;;;42.95;26.81;100802.23;107967;1280;21992;-59
2023/08/19 09:39:32;;;;;;;8.10;4.80;;;;;;;43.08;26.48;100804.84;107965;1289;21998;-58
2023/08/19 09:41:58;;;;;;;6.40;4.80;;;;;;;43.06;26.41;100804.95;108014;1289;21987;-59
2023/08/19 09:44:27;;;;;;;8.00;4.90;;;;;;;42.87;26.09;100799.67;107974;1284;21997;-59
2023/08/19 09:46:54;;;;;;;5.80;4.40;;;;;;;42.66;26.18;100797.20;108002;1286;22002;-71
2023/08/19 09:49:21;;;;;;;6.40;4.20;;;;;;;42.52;26.13;100794.55;107996;1288;21992;-59
2023/08/19 09:51:55;;;;;;;8.60;4.90;;;;;;;42.50;26.38;100798.90;108008;1280;22002;-60
2023/08/19 09:54:20;;;;;;;5.70;4.40;;;;;;;42.41;26.03;100796.91;107976;1289;22029;-71
2023/08/19 09:56:53;;;;;;;9.40;4.90;;;;;;;42.19;26.07;100796.20;107980;1283;21996;-60
2023/08/19 09:59:19;;;;;;;6.00;4.20;;;;;;;41.88;26.28;100792.59;107997;1283;21992;-59
2023/08/19 10:01:44;;;;;;;7.70;4.60;;;;;;;41.74;26.27;100794.86;107809;1290;22000;-59
2023/08/19 10:04:10;;;;;;;6.70;4.50;;;;;;;41.82;26.52;100794.42;107965;1286;22009;-70
2023/08/19 10:06:38;;;;;;;7.10;4.40;;;;;;;42.13;26.60;100791.48;107945;1289;23246;-59
2023/08/19 10:09:05;;;;;;;9.80;4.40;;;;;;;42.41;26.26;100789.88;108037;1289;21987;-71
2023/08/19 10:11:31;;;;;;;8.10;4.30;;;;;;;42.60;26.03;100789.23;107978;1286;22004;-69
2023/08/19 10:14:01;;;;;;;6.70;4.00;;;;;;;42.75;26.07;100782.08;108025;1289;22950;-58
2023/08/19 10:16:26;;;;;;;6.20;3.70;;;;;;;43.01;26.12;100785.61;107867;1289;21996;-60
2023/08/19 10:18:52;;;;;;;8.00;4.50;;;;;;;43.31;25.96;100781.24;107872;1284;21991;-59
2023/08/19 10:21:17;;;;;;;5.30;4.10;;;;;;;43.48;25.46;100774.70;107842;1289;21998;-59
2023/08/19 10:23:44;;;;;;;6.90;4.40;;;;;;;43.53;25.41;100771.98;107841;1289;21995;-70
2023/08/19 10:26:09;;;;;;;8.00;4.40;;;;;;;43.69;25.62;100776.70;107937;1283;23071;-68
2023/08/19 10:28:35;;;;;;;9.20;4.90;;;;;;;44.01;25.31;100777.54;108051;1286;22468;-69
2023/08/19 10:31:05;;;;;;;7.30;3.80;;;;;;;44.31;25.28;100777.25;108023;1289;21987;-59
2023/08/19 10:33:37;;;;;;;7.80;4.20;;;;;;;44.67;24.92;100777.30;108056;1289;22004;-70
2023/08/19 10:36:04;;;;;;;8.40;4.30;;;;;;;44.99;24.67;100772.85;107955;1287;21994;-59
2023/08/19 10:38:41;;;;;;;8.30;4.00;;;;;;;45.32;24.71;100775.59;107997;1287;21991;-71
2023/08/19 10:41:15;;;;;;;6.70;4.30;;;;;;;45.77;24.39;100772.52;107984;1287;23628;-71
2023/08/19 10:43:54;;;;;;;6.50;4.00;;;;;;;46.14;24.12;100773.63;107981;1288;21986;-59
2023/08/19 10:46:40;;;;;;;6.40;3.80;;;;;;;46.44;24.08;100774.14;107913;1287;21995;-70
2023/08/19 10:49:27;;;;;;;7.00;4.10;;;;;;;46.68;23.93;100777.79;107760;1289;22004;-59
2023/08/19 10:52:05;;;;;;;7.00;4.40;;;;;;;46.83;23.56;100779.06;107947;1289;21986;-60
2023/08/19 10:54:41;;;;;;;9.20;4.80;;;;;;;46.80;22.40;100772.66;108017;1284;22010;-70
2023/08/19 10:57:07;;;;;;;6.10;4.10;;;;;;;46.50;22.77;100768.27;107998;1283;22120;-71
2023/08/19 10:59:33;;;;;;;6.90;3.60;;;;;;;46.48;23.43;100766.73;107997;1283;23752;-72
2023/08/19 11:01:59;;;;;;;5.50;4.60;;;;;;;46.48;21.68;100757.39;108004;1286;23641;-61
2023/08/19 11:04:25;;;;;;;6.10;4.30;;;;;;;46.24;22.31;100758.36;107968;1289;21994;-71
2023/08/19 11:06:55;;;;;;;5.00;4.00;;;;;;;46.28;22.83;100760.45;108026;1284;23640;-72
2023/08/19 11:09:24;;;;;;;6.00;4.00;;;;;;;46.43;22.81;100757.73;107968;1283;22227;-70
2023/08/19 11:11:49;;;;;;;7.50;4.20;;;;;;;46.52;22.42;100755.13;108009;1284;21987;-59